sensor_id;sensor_type;location;lat;lon;timestamp;temperature;humidity
40816;DHT22;26535;48.788;9.214;2022-07-18T05:01:25;17.20;80.80
40816;DHT22;26535;48.788;9.214;2022-07-18T05:03:51;17.30;80.50
40816;DHT22;26535;48.788;9.214;2022-07-18T05:06:17;17.30;80.80
40816;DHT22;26535;48.788;9.214;2022-07-18T05:08:42;17.30;81.60
40816;DHT22;26535;48.788;9.214;2022-07-18T05:11:08;17.30;81.40
40816;DHT22;26535;48.788;9.214;2022-07-18T05:13:34;17.40;81.60
40816;DHT22;26535;48.788;9.214;2022-07-18T05:16:03;17.50;82.10
40816;DHT22;26535;48.788;9.214;2022-07-18T05:18:28;17.50;81.60
40816;DHT22;26535;48.788;9.214;2022-07-18T05:20:54;17.60;81.80
40816;DHT22;26535;48.788;9.214;2022-07-18T05:23:20;17.70;81.00
40816;DHT22;26535;48.788;9.214;2022-07-18T05:25:48;17.80;80.70
40816;DHT22;26535;48.788;9.214;2022-07-18T05:28:14;18.00;80.30
40816;DHT22;26535;48.788;9.214;2022-07-18T05:30:40;18.00;79.80
40816;DHT22;26535;48.788;9.214;2022-07-18T05:33:06;18.10;79.50
40816;DHT22;26535;48.788;9.214;2022-07-18T05:35:32;18.10;79.30
40816;DHT22;26535;48.788;9.214;2022-07-18T05:37:57;18.20;79.30
40816;DHT22;26535;48.788;9.214;2022-07-18T05:40:23;18.30;78.90
40816;DHT22;26535;48.788;9.214;2022-07-18T05:42:49;18.40;79.20
40816;DHT22;26535;48.788;9.214;2022-07-18T05:45:18;18.40;78.90
40816;DHT22;26535;48.788;9.214;2022-07-18T05:47:43;18.50;78.60
40816;DHT22;26535;48.788;9.214;2022-07-18T05:50:09;18.50;78.60
40816;DHT22;26535;48.788;9.214;2022-07-18T05:52:35;18.60;78.60
40816;DHT22;26535;48.788;9.214;2022-07-18T05:55:01;18.60;78.20
40816;DHT22;26535;48.788;9.214;2022-07-18T05:57:27;18.80;78.20
40816;DHT22;26535;48.788;9.214;2022-07-18T05:59:53;18.80;77.80
40816;DHT22;26535;48.788;9.214;2022-07-18T06:02:19;18.90;77.60
40816;DHT22;26535;48.788;9.214;2022-07-18T06:04:45;19.10;77.40
40816;DHT22;26535;48.788;9.214;2022-07-18T06:07:10;19.20;76.80
40816;DHT22;26535;48.788;9.214;2022-07-18T06:09:36;19.30;76.40
40816;DHT22;26535;48.788;9.214;2022-07-18T06:12:03;19.30;76.10
40816;DHT22;26535;48.788;9.214;2022-07-18T06:14:30;19.50;74.70
40816;DHT22;26535;48.788;9.214;2022-07-18T06:16:58;19.70;75.00
40816;DHT22;26535;48.788;9.214;2022-07-18T06:19:24;19.90;73.80
40816;DHT22;26535;48.788;9.214;2022-07-18T06:21:51;20.00;73.30
40816;DHT22;26535;48.788;9.214;2022-07-18T06:24:17;20.20;73.00
40816;DHT22;26535;48.788;9.214;2022-07-18T06:26:43;20.20;72.80
40816;DHT22;26535;48.788;9.214;2022-07-18T06:29:08;20.20;72.80
40816;DHT22;26535;48.788;9.214;2022-07-18T06:31:34;20.40;72.60
40816;DHT22;26535;48.788;9.214;2022-07-18T06:34:00;20.40;72.20
40816;DHT22;26535;48.788;9.214;2022-07-18T06:36:26;20.60;71.80
40816;DHT22;26535;48.788;9.214;2022-07-18T06:38:51;20.60;71.40
40816;DHT22;26535;48.788;9.214;2022-07-18T06:41:18;20.70;71.00
40816;DHT22;26535;48.788;9.214;2022-07-18T06:43:44;20.80;70.60
40816;DHT22;26535;48.788;9.214;2022-07-18T06:46:10;20.90;70.60
40816;DHT22;26535;48.788;9.214;2022-07-18T06:48:36;20.80;70.60
40816;DHT22;26535;48.788;9.214;2022-07-18T06:51:03;20.90;70.60
40816;DHT22;26535;48.788;9.214;2022-07-18T06:53:30;21.00;70.20
40816;DHT22;26535;48.788;9.214;2022-07-18T06:55:56;21.20;69.70
40816;DHT22;26535;48.788;9.214;2022-07-18T06:58:22;21.30;69.20
40816;DHT22;26535;48.788;9.214;2022-07-18T07:00:48;21.40;69.30
40816;DHT22;26535;48.788;9.214;2022-07-18T07:03:14;21.60;69.10
40816;DHT22;26535;48.788;9.214;2022-07-18T07:05:40;21.80;68.40
40816;DHT22;26535;48.788;9.214;2022-07-18T07:08:07;21.90;68.10
40816;DHT22;26535;48.788;9.214;2022-07-18T07:10:33;22.00;67.70
40816;DHT22;26535;48.788;9.214;2022-07-18T07:12:59;22.10;67.40
40816;DHT22;26535;48.788;9.214;2022-07-18T07:15:25;22.20;67.10
40816;DHT22;26535;48.788;9.214;2022-07-18T07:17:51;22.40;67.00
40816;DHT22;26535;48.788;9.214;2022-07-18T07:20:18;22.50;66.40
40816;DHT22;26535;48.788;9.214;2022-07-18T07:22:54;22.70;65.90
40816;DHT22;26535;48.788;9.214;2022-07-18T07:25:21;22.80;65.80
40816;DHT22;26535;48.788;9.214;2022-07-18T07:27:47;23.00;65.40
40816;DHT22;26535;48.788;9.214;2022-07-18T07:30:15;23.10;64.80
40816;DHT22;26535;48.788;9.214;2022-07-18T07:32:42;23.20;65.10
40816;DHT22;26535;48.788;9.214;2022-07-18T07:35:10;23.30;64.40
40816;DHT22;26535;48.788;9.214;2022-07-18T07:37:47;23.40;64.10
40816;DHT22;26535;48.788;9.214;2022-07-18T07:40:14;23.60;64.10
40816;DHT22;26535;48.788;9.214;2022-07-18T07:42:40;23.70;63.60
40816;DHT22;26535;48.788;9.214;2022-07-18T07:45:06;23.90;63.20
40816;DHT22;26535;48.788;9.214;2022-07-18T07:47:32;24.00;62.80
40816;DHT22;26535;48.788;9.214;2022-07-18T07:49:59;24.00;62.50
40816;DHT22;26535;48.788;9.214;2022-07-18T07:52:25;24.10;62.50
40816;DHT22;26535;48.788;9.214;2022-07-18T07:54:51;24.30;62.20
40816;DHT22;26535;48.788;9.214;2022-07-18T07:57:17;24.40;61.80
40816;DHT22;26535;48.788;9.214;2022-07-18T07:59:42;24.60;61.70
40816;DHT22;26535;48.788;9.214;2022-07-18T08:02:09;24.70;60.90
40816;DHT22;26535;48.788;9.214;2022-07-18T08:04:35;24.80;60.60
40816;DHT22;26535;48.788;9.214;2022-07-18T08:07:01;24.90;60.50
40816;DHT22;26535;48.788;9.214;2022-07-18T08:09:27;24.90;60.20
40816;DHT22;26535;48.788;9.214;2022-07-18T08:11:52;25.00;60.20
40816;DHT22;26535;48.788;9.214;2022-07-18T08:14:18;25.20;59.80
40816;DHT22;26535;48.788;9.214;2022-07-18T08:16:44;25.30;59.80
40816;DHT22;26535;48.788;9.214;2022-07-18T08:19:10;25.50;59.30
40816;DHT22;26535;48.788;9.214;2022-07-18T08:21:36;25.60;59.30
40816;DHT22;26535;48.788;9.214;2022-07-18T08:24:02;25.70;58.30
40816;DHT22;26535;48.788;9.214;2022-07-18T08:26:28;25.70;58.10
40816;DHT22;26535;48.788;9.214;2022-07-18T08:28:53;25.70;58.00
40816;DHT22;26535;48.788;9.214;2022-07-18T08:31:19;25.90;57.50
40816;DHT22;26535;48.788;9.214;2022-07-18T08:33:46;26.00;57.20
40816;DHT22;26535;48.788;9.214;2022-07-18T08:36:13;26.10;57.20
40816;DHT22;26535;48.788;9.214;2022-07-18T08:38:39;26.20;56.80
40816;DHT22;26535;48.788;9.214;2022-07-18T08:41:05;26.30;56.40
40816;DHT22;26535;48.788;9.214;2022-07-18T08:43:31;26.40;55.80
40816;DHT22;26535;48.788;9.214;2022-07-18T08:46:04;26.60;55.80
40816;DHT22;26535;48.788;9.214;2022-07-18T08:48:31;26.60;54.70
40816;DHT22;26535;48.788;9.214;2022-07-18T08:50:56;26.60;54.70
40816;DHT22;26535;48.788;9.214;2022-07-18T08:53:24;26.70;54.70
40816;DHT22;26535;48.788;9.214;2022-07-18T08:55:50;26.70;53.80
40816;DHT22;26535;48.788;9.214;2022-07-18T08:58:16;26.80;53.00
40816;DHT22;26535;48.788;9.214;2022-07-18T09:00:44;26.90;52.10
40816;DHT22;26535;48.788;9.214;2022-07-18T09:03:10;26.80;51.50
40816;DHT22;26535;48.788;9.214;2022-07-18T09:05:36;26.90;51.70
40816;DHT22;26535;48.788;9.214;2022-07-18T09:08:20;27.00;49.20
40816;DHT22;26535;48.788;9.214;2022-07-18T09:10:52;27.00;50.00
40816;DHT22;26535;48.788;9.214;2022-07-18T09:13:21;27.10;50.10
40816;DHT22;26535;48.788;9.214;2022-07-18T09:16:05;27.30;51.20
40816;DHT22;26535;48.788;9.214;2022-07-18T09:18:33;27.40;50.30
40816;DHT22;26535;48.788;9.214;2022-07-18T09:21:01;27.60;50.50
40816;DHT22;26535;48.788;9.214;2022-07-18T09:23:34;27.70;50.40
40816;DHT22;26535;48.788;9.214;2022-07-18T09:26:01;27.80;49.80
40816;DHT22;26535;48.788;9.214;2022-07-18T09:28:48;28.00;49.50
40816;DHT22;26535;48.788;9.214;2022-07-18T09:31:22;27.90;49.60
40816;DHT22;26535;48.788;9.214;2022-07-18T09:34:05;27.90;49.90
40816;DHT22;26535;48.788;9.214;2022-07-18T09:36:32;28.10;49.40
40816;DHT22;26535;48.788;9.214;2022-07-18T09:39:19;28.20;49.70
40816;DHT22;26535;48.788;9.214;2022-07-18T09:41:48;28.30;49.40
40816;DHT22;26535;48.788;9.214;2022-07-18T09:44:18;28.40;49.20
40816;DHT22;26535;48.788;9.214;2022-07-18T09:47:03;28.50;49.80
40816;DHT22;26535;48.788;9.214;2022-07-18T09:49:38;28.60;49.60
40816;DHT22;26535;48.788;9.214;2022-07-18T09:52:08;28.70;47.70
40816;DHT22;26535;48.788;9.214;2022-07-18T09:54:42;28.90;48.20
40816;DHT22;26535;48.788;9.214;2022-07-18T09:57:09;28.90;46.60
40816;DHT22;26535;48.788;9.214;2022-07-18T09:59:37;28.90;45.80
40816;DHT22;26535;48.788;9.214;2022-07-18T10:02:04;28.90;47.00
40816;DHT22;26535;48.788;9.214;2022-07-18T10:04:45;29.10;46.70
40816;DHT22;26535;48.788;9.214;2022-07-18T10:07:11;29.20;46.30
40816;DHT22;26535;48.788;9.214;2022-07-18T10:09:40;29.20;45.90
40816;DHT22;26535;48.788;9.214;2022-07-18T10:12:07;29.30;46.20
40816;DHT22;26535;48.788;9.214;2022-07-18T10:14:33;29.40;46.10
40816;DHT22;26535;48.788;9.214;2022-07-18T10:16:59;29.50;45.60
40816;DHT22;26535;48.788;9.214;2022-07-18T10:19:26;29.60;45.50
40816;DHT22;26535;48.788;9.214;2022-07-18T10:21:53;29.70;45.50
40816;DHT22;26535;48.788;9.214;2022-07-18T10:24:21;29.70;44.60
40816;DHT22;26535;48.788;9.214;2022-07-18T10:27:15;29.70;45.60
40816;DHT22;26535;48.788;9.214;2022-07-18T10:30:11;29.90;45.60
40816;DHT22;26535;48.788;9.214;2022-07-18T10:32:37;29.90;44.80
40816;DHT22;26535;48.788;9.214;2022-07-18T10:35:04;29.90;43.70
40816;DHT22;26535;48.788;9.214;2022-07-18T10:37:32;29.90;44.50
40816;DHT22;26535;48.788;9.214;2022-07-18T10:40:23;30.00;42.80
40816;DHT22;26535;48.788;9.214;2022-07-18T10:46:08;30.10;44.00
40816;DHT22;26535;48.788;9.214;2022-07-18T10:51:09;30.20;44.80
40816;DHT22;26535;48.788;9.214;2022-07-18T10:54:05;30.40;44.50
40816;DHT22;26535;48.788;9.214;2022-07-18T10:59:22;30.60;44.40
40816;DHT22;26535;48.788;9.214;2022-07-18T11:01:52;30.70;43.80
40816;DHT22;26535;48.788;9.214;2022-07-18T11:04:34;30.70;43.00
40816;DHT22;26535;48.788;9.214;2022-07-18T11:07:14;30.90;42.60
40816;DHT22;26535;48.788;9.214;2022-07-18T11:12:24;31.20;43.00
40816;DHT22;26535;48.788;9.214;2022-07-18T11:15:09;31.30;42.90
40816;DHT22;26535;48.788;9.214;2022-07-18T11:20:42;31.70;42.80
40816;DHT22;26535;48.788;9.214;2022-07-18T11:23:20;31.80;43.10
40816;DHT22;26535;48.788;9.214;2022-07-18T11:25:49;31.90;42.70
40816;DHT22;26535;48.788;9.214;2022-07-18T11:28:15;32.20;41.80
40816;DHT22;26535;48.788;9.214;2022-07-18T11:30:44;32.40;42.40
40816;DHT22;26535;48.788;9.214;2022-07-18T11:33:25;32.40;41.70
40816;DHT22;26535;48.788;9.214;2022-07-18T11:35:51;32.50;42.00
40816;DHT22;26535;48.788;9.214;2022-07-18T11:38:17;32.80;42.30
40816;DHT22;26535;48.788;9.214;2022-07-18T11:40:51;33.30;41.90
40816;DHT22;26535;48.788;9.214;2022-07-18T11:43:34;33.90;41.40
40816;DHT22;26535;48.788;9.214;2022-07-18T11:46:09;34.40;40.50
40816;DHT22;26535;48.788;9.214;2022-07-18T11:48:36;34.80;39.80
40816;DHT22;26535;48.788;9.214;2022-07-18T11:51:02;35.50;39.40
40816;DHT22;26535;48.788;9.214;2022-07-18T11:53:28;36.10;39.80
40816;DHT22;26535;48.788;9.214;2022-07-18T11:55:55;36.80;40.60
40816;DHT22;26535;48.788;9.214;2022-07-18T11:58:21;37.60;38.40
40816;DHT22;26535;48.788;9.214;2022-07-18T12:00:48;38.70;38.40
40816;DHT22;26535;48.788;9.214;2022-07-18T12:03:17;39.60;38.10
40816;DHT22;26535;48.788;9.214;2022-07-18T12:05:48;40.30;37.20
40816;DHT22;26535;48.788;9.214;2022-07-18T12:08:45;40.40;36.30
40816;DHT22;26535;48.788;9.214;2022-07-18T12:16:43;41.60;36.10
40816;DHT22;26535;48.788;9.214;2022-07-18T12:19:18;43.20;35.50
40816;DHT22;26535;48.788;9.214;2022-07-18T12:21:54;42.90;34.70
40816;DHT22;26535;48.788;9.214;2022-07-18T12:27:35;43.50;35.10
40816;DHT22;26535;48.788;9.214;2022-07-18T12:30:35;43.70;34.80
40816;DHT22;26535;48.788;9.214;2022-07-18T12:33:07;44.70;34.70
40816;DHT22;26535;48.788;9.214;2022-07-18T12:35:39;44.90;33.80
40816;DHT22;26535;48.788;9.214;2022-07-18T12:38:20;44.10;34.10
40816;DHT22;26535;48.788;9.214;2022-07-18T12:41:02;43.60;34.80
40816;DHT22;26535;48.788;9.214;2022-07-18T12:43:38;44.10;34.60
40816;DHT22;26535;48.788;9.214;2022-07-18T12:46:07;45.60;35.20
40816;DHT22;26535;48.788;9.214;2022-07-18T12:48:34;46.60;34.20
40816;DHT22;26535;48.788;9.214;2022-07-18T12:51:08;47.40;34.20
40816;DHT22;26535;48.788;9.214;2022-07-18T12:53:41;47.80;33.90
40816;DHT22;26535;48.788;9.214;2022-07-18T12:56:07;48.80;33.20
40816;DHT22;26535;48.788;9.214;2022-07-18T12:58:33;49.30;33.10
40816;DHT22;26535;48.788;9.214;2022-07-18T13:01:15;49.70;32.80
40816;DHT22;26535;48.788;9.214;2022-07-18T13:03:41;49.50;33.20
40816;DHT22;26535;48.788;9.214;2022-07-18T13:06:07;49.80;33.20
40816;DHT22;26535;48.788;9.214;2022-07-18T13:08:32;50.00;32.60
40816;DHT22;26535;48.788;9.214;2022-07-18T13:10:58;48.40;33.60
40816;DHT22;26535;48.788;9.214;2022-07-18T13:13:24;47.90;32.90
40816;DHT22;26535;48.788;9.214;2022-07-18T13:15:50;47.40;32.90
40816;DHT22;26535;48.788;9.214;2022-07-18T13:18:16;47.30;32.80
40816;DHT22;26535;48.788;9.214;2022-07-18T13:20:42;48.30;32.90
40816;DHT22;26535;48.788;9.214;2022-07-18T13:23:08;49.00;33.10
40816;DHT22;26535;48.788;9.214;2022-07-18T13:25:35;49.40;32.70
40816;DHT22;26535;48.788;9.214;2022-07-18T13:28:02;49.30;32.80
40816;DHT22;26535;48.788;9.214;2022-07-18T13:30:28;49.20;32.30
40816;DHT22;26535;48.788;9.214;2022-07-18T13:32:57;49.80;32.70
40816;DHT22;26535;48.788;9.214;2022-07-18T13:35:28;50.10;32.10
40816;DHT22;26535;48.788;9.214;2022-07-18T13:37:54;50.50;32.60
40816;DHT22;26535;48.788;9.214;2022-07-18T13:40:20;50.30;32.50
40816;DHT22;26535;48.788;9.214;2022-07-18T13:42:46;50.90;32.50
40816;DHT22;26535;48.788;9.214;2022-07-18T13:45:12;50.40;31.90
40816;DHT22;26535;48.788;9.214;2022-07-18T13:47:41;51.20;31.90
40816;DHT22;26535;48.788;9.214;2022-07-18T13:50:08;51.60;31.60
40816;DHT22;26535;48.788;9.214;2022-07-18T13:52:34;51.20;32.00
40816;DHT22;26535;48.788;9.214;2022-07-18T13:54:59;52.50;31.90
40816;DHT22;26535;48.788;9.214;2022-07-18T13:57:25;53.20;31.50
40816;DHT22;26535;48.788;9.214;2022-07-18T13:59:51;53.90;31.50
40816;DHT22;26535;48.788;9.214;2022-07-18T14:02:20;53.70;31.00
40816;DHT22;26535;48.788;9.214;2022-07-18T14:04:55;53.70;31.20
40816;DHT22;26535;48.788;9.214;2022-07-18T14:07:24;52.90;31.00
40816;DHT22;26535;48.788;9.214;2022-07-18T14:09:50;52.00;31.70
40816;DHT22;26535;48.788;9.214;2022-07-18T14:12:40;52.50;31.70
40816;DHT22;26535;48.788;9.214;2022-07-18T14:15:19;52.20;31.40
40816;DHT22;26535;48.788;9.214;2022-07-18T14:18:00;51.70;32.40
40816;DHT22;26535;48.788;9.214;2022-07-18T14:20:29;52.30;31.10
40816;DHT22;26535;48.788;9.214;2022-07-18T14:22:55;53.10;31.30
40816;DHT22;26535;48.788;9.214;2022-07-18T14:25:21;53.80;31.50
40816;DHT22;26535;48.788;9.214;2022-07-18T14:27:49;53.70;31.40
40816;DHT22;26535;48.788;9.214;2022-07-18T14:30:15;54.00;31.30
40816;DHT22;26535;48.788;9.214;2022-07-18T14:32:42;54.40;31.30
40816;DHT22;26535;48.788;9.214;2022-07-18T14:35:08;54.80;31.30
40816;DHT22;26535;48.788;9.214;2022-07-18T14:37:34;54.50;31.00
40816;DHT22;26535;48.788;9.214;2022-07-18T14:40:00;54.40;31.20
40816;DHT22;26535;48.788;9.214;2022-07-18T14:42:26;54.50;30.90
40816;DHT22;26535;48.788;9.214;2022-07-18T14:44:53;54.80;31.10
40816;DHT22;26535;48.788;9.214;2022-07-18T14:47:18;54.30;31.20
40816;DHT22;26535;48.788;9.214;2022-07-18T14:49:50;55.00;31.10
40816;DHT22;26535;48.788;9.214;2022-07-18T14:52:21;55.10;30.90
40816;DHT22;26535;48.788;9.214;2022-07-18T14:54:49;55.10;30.60
40816;DHT22;26535;48.788;9.214;2022-07-18T14:57:14;54.50;30.70
40816;DHT22;26535;48.788;9.214;2022-07-18T14:59:41;55.00;31.20
40816;DHT22;26535;48.788;9.214;2022-07-18T15:02:07;55.10;30.50
40816;DHT22;26535;48.788;9.214;2022-07-18T15:04:34;56.00;30.80
40816;DHT22;26535;48.788;9.214;2022-07-18T15:06:59;56.40;30.50
40816;DHT22;26535;48.788;9.214;2022-07-18T15:09:25;56.40;30.70
40816;DHT22;26535;48.788;9.214;2022-07-18T15:11:51;55.90;30.70
40816;DHT22;26535;48.788;9.214;2022-07-18T15:14:16;55.90;30.70
40816;DHT22;26535;48.788;9.214;2022-07-18T15:16:42;55.20;31.00
40816;DHT22;26535;48.788;9.214;2022-07-18T15:19:08;55.40;31.30
40816;DHT22;26535;48.788;9.214;2022-07-18T15:21:35;55.00;31.00
40816;DHT22;26535;48.788;9.214;2022-07-18T15:24:01;54.80;30.60
40816;DHT22;26535;48.788;9.214;2022-07-18T15:26:27;54.30;31.60
40816;DHT22;26535;48.788;9.214;2022-07-18T15:28:52;54.90;30.80
40816;DHT22;26535;48.788;9.214;2022-07-18T15:31:18;55.10;30.70
40816;DHT22;26535;48.788;9.214;2022-07-18T15:33:44;55.00;30.80
40816;DHT22;26535;48.788;9.214;2022-07-18T15:36:10;54.50;30.80
40816;DHT22;26535;48.788;9.214;2022-07-18T15:38:36;54.10;31.00
40816;DHT22;26535;48.788;9.214;2022-07-18T15:41:06;54.00;30.80
40816;DHT22;26535;48.788;9.214;2022-07-18T15:43:33;54.30;30.50
40816;DHT22;26535;48.788;9.214;2022-07-18T15:45:59;53.90;30.60
40816;DHT22;26535;48.788;9.214;2022-07-18T15:48:25;53.60;31.70
40816;DHT22;26535;48.788;9.214;2022-07-18T15:50:52;53.60;31.30
40816;DHT22;26535;48.788;9.214;2022-07-18T15:53:18;53.60;31.00
40816;DHT22;26535;48.788;9.214;2022-07-18T15:55:43;54.10;31.20
40816;DHT22;26535;48.788;9.214;2022-07-18T15:58:09;54.10;31.00
40816;DHT22;26535;48.788;9.214;2022-07-18T16:00:35;54.30;31.40
40816;DHT22;26535;48.788;9.214;2022-07-18T16:03:03;54.00;30.50
40816;DHT22;26535;48.788;9.214;2022-07-18T16:05:29;54.20;30.50
40816;DHT22;26535;48.788;9.214;2022-07-18T16:07:55;54.20;30.50
40816;DHT22;26535;48.788;9.214;2022-07-18T16:10:21;54.40;31.00
40816;DHT22;26535;48.788;9.214;2022-07-18T16:12:47;54.00;30.60
40816;DHT22;26535;48.788;9.214;2022-07-18T16:15:13;53.10;30.90
40816;DHT22;26535;48.788;9.214;2022-07-18T16:17:39;52.60;31.00
40816;DHT22;26535;48.788;9.214;2022-07-18T16:20:09;52.60;31.20
40816;DHT22;26535;48.788;9.214;2022-07-18T16:22:35;53.30;31.00
40816;DHT22;26535;48.788;9.214;2022-07-18T16:25:00;53.00;30.60
40816;DHT22;26535;48.788;9.214;2022-07-18T16:27:26;52.70;31.00
40816;DHT22;26535;48.788;9.214;2022-07-18T16:29:54;52.10;31.10
40816;DHT22;26535;48.788;9.214;2022-07-18T16:32:23;52.30;31.10
40816;DHT22;26535;48.788;9.214;2022-07-18T16:34:49;52.90;31.40
40816;DHT22;26535;48.788;9.214;2022-07-18T16:37:15;53.40;31.00
40816;DHT22;26535;48.788;9.214;2022-07-18T16:39:40;53.80;31.00
40816;DHT22;26535;48.788;9.214;2022-07-18T16:42:07;53.80;30.70
40816;DHT22;26535;48.788;9.214;2022-07-18T16:44:33;53.70;30.80
40816;DHT22;26535;48.788;9.214;2022-07-18T16:47:02;53.10;30.50
40816;DHT22;26535;48.788;9.214;2022-07-18T16:49:28;52.70;31.00
40816;DHT22;26535;48.788;9.214;2022-07-18T16:51:54;51.90;31.20
40816;DHT22;26535;48.788;9.214;2022-07-18T16:54:25;51.10;31.40
40816;DHT22;26535;48.788;9.214;2022-07-18T16:56:53;49.50;31.50
40816;DHT22;26535;48.788;9.214;2022-07-18T16:59:22;48.50;32.20
40816;DHT22;26535;48.788;9.214;2022-07-18T17:01:48;47.10;32.70
40816;DHT22;26535;48.788;9.214;2022-07-18T17:04:17;45.90;33.00
40816;DHT22;26535;48.788;9.214;2022-07-18T17:06:43;44.70;33.90
40816;DHT22;26535;48.788;9.214;2022-07-18T17:09:09;43.80;35.00
40816;DHT22;26535;48.788;9.214;2022-07-18T17:11:36;42.90;34.80
40816;DHT22;26535;48.788;9.214;2022-07-18T17:14:02;42.40;35.30
40816;DHT22;26535;48.788;9.214;2022-07-18T17:16:28;42.80;35.10
40816;DHT22;26535;48.788;9.214;2022-07-18T17:18:54;43.40;34.80
40816;DHT22;26535;48.788;9.214;2022-07-18T17:21:20;43.90;34.40
40816;DHT22;26535;48.788;9.214;2022-07-18T17:23:46;44.90;34.30
40816;DHT22;26535;48.788;9.214;2022-07-18T17:26:12;45.40;33.60
40816;DHT22;26535;48.788;9.214;2022-07-18T17:28:39;46.30;33.70
40816;DHT22;26535;48.788;9.214;2022-07-18T17:31:05;46.70;33.10
40816;DHT22;26535;48.788;9.214;2022-07-18T17:33:31;47.00;33.70
40816;DHT22;26535;48.788;9.214;2022-07-18T17:35:59;47.10;33.60
40816;DHT22;26535;48.788;9.214;2022-07-18T17:38:26;46.60;33.60
40816;DHT22;26535;48.788;9.214;2022-07-18T17:40:52;46.20;33.90
40816;DHT22;26535;48.788;9.214;2022-07-18T17:43:18;45.50;34.00
40816;DHT22;26535;48.788;9.214;2022-07-18T17:45:44;45.20;34.50
40816;DHT22;26535;48.788;9.214;2022-07-18T17:48:10;45.00;34.30
40816;DHT22;26535;48.788;9.214;2022-07-18T17:50:37;44.90;34.70
40816;DHT22;26535;48.788;9.214;2022-07-18T17:53:03;44.80;34.50
40816;DHT22;26535;48.788;9.214;2022-07-18T17:55:30;44.90;35.00
40816;DHT22;26535;48.788;9.214;2022-07-18T17:57:56;45.30;34.80
40816;DHT22;26535;48.788;9.214;2022-07-18T18:00:28;45.50;34.60
40816;DHT22;26535;48.788;9.214;2022-07-18T18:02:54;45.40;34.20
40816;DHT22;26535;48.788;9.214;2022-07-18T18:05:20;46.00;34.70
40816;DHT22;26535;48.788;9.214;2022-07-18T18:07:46;46.20;34.60
40816;DHT22;26535;48.788;9.214;2022-07-18T18:10:15;45.50;34.30
40816;DHT22;26535;48.788;9.214;2022-07-18T18:12:41;45.00;34.50
40816;DHT22;26535;48.788;9.214;2022-07-18T18:15:07;44.20;35.40
40816;DHT22;26535;48.788;9.214;2022-07-18T18:17:33;43.80;35.20
40816;DHT22;26535;48.788;9.214;2022-07-18T18:19:59;43.70;35.60
40816;DHT22;26535;48.788;9.214;2022-07-18T18:22:25;43.60;36.00
40816;DHT22;26535;48.788;9.214;2022-07-18T18:24:54;43.00;36.10
40816;DHT22;26535;48.788;9.214;2022-07-18T18:27:19;42.00;36.80
40816;DHT22;26535;48.788;9.214;2022-07-18T18:29:45;40.80;37.30
40816;DHT22;26535;48.788;9.214;2022-07-18T18:32:14;39.70;37.60
40816;DHT22;26535;48.788;9.214;2022-07-18T18:34:43;38.50;38.40
40816;DHT22;26535;48.788;9.214;2022-07-18T18:37:11;37.60;39.20
40816;DHT22;26535;48.788;9.214;2022-07-18T18:39:39;36.70;39.80
40816;DHT22;26535;48.788;9.214;2022-07-18T18:42:10;36.20;40.50
40816;DHT22;26535;48.788;9.214;2022-07-18T18:44:37;35.60;41.00
40816;DHT22;26535;48.788;9.214;2022-07-18T18:47:04;35.10;41.30
40816;DHT22;26535;48.788;9.214;2022-07-18T18:49:33;34.80;41.90
40816;DHT22;26535;48.788;9.214;2022-07-18T18:51:59;34.50;42.40
40816;DHT22;26535;48.788;9.214;2022-07-18T18:54:28;34.30;42.50
40816;DHT22;26535;48.788;9.214;2022-07-18T18:56:55;34.10;42.90
40816;DHT22;26535;48.788;9.214;2022-07-18T18:59:21;34.10;43.10
40816;DHT22;26535;48.788;9.214;2022-07-18T19:01:52;33.90;42.90
40816;DHT22;26535;48.788;9.214;2022-07-18T19:04:18;33.50;43.30
40816;DHT22;26535;48.788;9.214;2022-07-18T19:06:44;33.30;43.90
40816;DHT22;26535;48.788;9.214;2022-07-18T19:09:10;33.20;44.20
40816;DHT22;26535;48.788;9.214;2022-07-18T19:11:37;33.00;44.10
40816;DHT22;26535;48.788;9.214;2022-07-18T19:14:03;32.90;44.30
40816;DHT22;26535;48.788;9.214;2022-07-18T19:16:29;32.70;44.20
40816;DHT22;26535;48.788;9.214;2022-07-18T19:18:55;32.60;45.20
40816;DHT22;26535;48.788;9.214;2022-07-18T19:21:22;32.50;45.70
40816;DHT22;26535;48.788;9.214;2022-07-18T19:23:48;32.20;46.10
40816;DHT22;26535;48.788;9.214;2022-07-18T19:26:14;31.80;46.60
40816;DHT22;26535;48.788;9.214;2022-07-18T19:28:39;31.70;46.80
40816;DHT22;26535;48.788;9.214;2022-07-18T19:31:06;31.60;47.20
40816;DHT22;26535;48.788;9.214;2022-07-18T19:33:33;31.40;48.10
40816;DHT22;26535;48.788;9.214;2022-07-18T19:35:59;31.20;47.80
40816;DHT22;26535;48.788;9.214;2022-07-18T19:38:25;31.00;48.00
40816;DHT22;26535;48.788;9.214;2022-07-18T19:40:51;30.70;48.10
40816;DHT22;26535;48.788;9.214;2022-07-18T19:43:23;30.50;48.40
40816;DHT22;26535;48.788;9.214;2022-07-18T19:45:49;30.40;48.60
40816;DHT22;26535;48.788;9.214;2022-07-18T19:48:15;30.10;49.10
40816;DHT22;26535;48.788;9.214;2022-07-18T19:50:41;30.10;49.20
40816;DHT22;26535;48.788;9.214;2022-07-18T19:53:10;30.00;49.20
40816;DHT22;26535;48.788;9.214;2022-07-18T19:55:37;29.80;49.20
40816;DHT22;26535;48.788;9.214;2022-07-18T19:58:04;29.80;49.50
40816;DHT22;26535;48.788;9.214;2022-07-18T20:00:34;29.70;49.50
40816;DHT22;26535;48.788;9.214;2022-07-18T20:03:01;29.60;49.80
40816;DHT22;26535;48.788;9.214;2022-07-18T20:05:36;29.40;50.20
40816;DHT22;26535;48.788;9.214;2022-07-18T20:08:04;29.10;50.60
40816;DHT22;26535;48.788;9.214;2022-07-18T20:10:30;28.90;50.70
40816;DHT22;26535;48.788;9.214;2022-07-18T20:12:57;28.80;51.10
40816;DHT22;26535;48.788;9.214;2022-07-18T20:15:24;28.70;51.60
40816;DHT22;26535;48.788;9.214;2022-07-18T20:17:50;28.50;51.70
40816;DHT22;26535;48.788;9.214;2022-07-18T20:20:16;28.40;51.60
40816;DHT22;26535;48.788;9.214;2022-07-18T20:22:42;28.30;51.50
40816;DHT22;26535;48.788;9.214;2022-07-18T20:25:08;28.30;51.50
40816;DHT22;26535;48.788;9.214;2022-07-18T20:27:35;28.20;51.80
40816;DHT22;26535;48.788;9.214;2022-07-18T20:30:02;28.00;52.60
40816;DHT22;26535;48.788;9.214;2022-07-18T20:32:31;27.90;52.30
40816;DHT22;26535;48.788;9.214;2022-07-18T20:34:57;27.80;52.30
40816;DHT22;26535;48.788;9.214;2022-07-18T20:37:22;27.60;52.60
40816;DHT22;26535;48.788;9.214;2022-07-18T20:39:48;27.50;52.60
40816;DHT22;26535;48.788;9.214;2022-07-18T20:42:14;27.50;53.00
40816;DHT22;26535;48.788;9.214;2022-07-18T20:44:40;27.30;53.30
40816;DHT22;26535;48.788;9.214;2022-07-18T20:47:05;27.20;53.70
40816;DHT22;26535;48.788;9.214;2022-07-18T20:49:31;27.10;54.30
40816;DHT22;26535;48.788;9.214;2022-07-18T20:51:57;27.00;53.90
40816;DHT22;26535;48.788;9.214;2022-07-18T20:54:23;26.90;53.60
40816;DHT22;26535;48.788;9.214;2022-07-18T20:56:51;26.80;54.10
40816;DHT22;26535;48.788;9.214;2022-07-18T20:59:18;26.60;54.90